Terminal Aerodrome Forecast
Issued by NWS

Home | Current Version | Previous Version | Text Only | Print | Product List | Glossary On
Versions: 1 2 3 4 5 6 7 8 9 10 11 12 13 14 15 16 17 18 19 20 21
000
FTUS41 KBOX 301125
TAFFMH
TAF
KFMH 301125Z 3012/3112 18004KT 1/4SM FG OVC003
     FM301300 23007KT 2SM -SHRA BR OVC003
     FM302000 21011G22KT P6SM VCSH OVC003
     FM310300 22010G22KT P6SM -SHRA OVC003
     FM310500 21006KT P6SM -SHRA OVC003
     FM311100 25004KT 4SM BR VCSH OVC070=

USA.gov is the U.S. government's official web portal to all federal, state and local government web resources and services.